createdAt,value
2022-08-09T00:00:57.726Z,59.72
2022-08-09T00:04:03.426Z,59.88
2022-08-09T00:06:17.699Z,60.05
2022-08-09T00:08:52.373Z,60.31
2022-08-09T00:11:56.870Z,60.47
2022-08-09T00:14:17.335Z,60.62
2022-08-09T00:16:56.931Z,60.73
2022-08-09T00:19:24.849Z,60.88
2022-08-09T00:21:57.039Z,61.09
2022-08-09T00:24:27.713Z,60.94
2022-08-09T00:26:57.323Z,61.23
2022-08-09T00:29:39.085Z,61.35
2022-08-09T00:32:13.321Z,61.69
2022-08-09T00:34:53.556Z,62.18
2022-08-09T00:37:21.395Z,62.33
2022-08-09T00:40:13.836Z,62.59
2022-08-09T00:44:19.389Z,62.93
2022-08-09T00:45:26.677Z,63.19
2022-08-09T00:47:55.494Z,63.59
2022-08-09T00:50:23.737Z,63.60
2022-08-09T00:52:52.603Z,63.79
2022-08-09T00:55:32.722Z,64.14
2022-08-09T00:58:14.647Z,64.41
2022-08-09T01:00:53.735Z,64.34
2022-08-09T01:03:29.089Z,64.45
2022-08-09T01:06:18.161Z,64.56
2022-08-09T01:08:55.769Z,64.65
2022-08-09T01:11:37.807Z,64.80
2022-08-09T01:14:14.866Z,65.44
2022-08-09T01:16:47.299Z,65.81
2022-08-09T01:19:39.991Z,65.85
2022-08-09T01:22:48.205Z,66.13
2022-08-09T01:25:48.997Z,66.30
2022-08-09T01:28:22.331Z,66.46
2022-08-09T01:30:53.251Z,66.70
2022-08-09T01:33:26.400Z,66.85
2022-08-09T01:36:00.712Z,67.12
2022-08-09T01:38:31.473Z,67.29
2022-08-09T01:41:06.757Z,67.50
2022-08-09T01:43:50.213Z,67.66
2022-08-09T01:46:24.938Z,67.50
2022-08-09T01:48:56.806Z,67.91
2022-08-09T01:51:26.632Z,67.94
2022-08-09T01:53:58.115Z,68.08
2022-08-09T01:56:29.955Z,67.87
2022-08-09T01:59:02.610Z,67.90
2022-08-09T02:01:57.976Z,67.91
2022-08-09T02:04:22.479Z,68.31
2022-08-09T02:07:18.397Z,68.25
2022-08-09T02:10:08.159Z,68.51
2022-08-09T02:12:39.823Z,68.57
2022-08-09T02:15:16.763Z,68.53
2022-08-09T02:18:09.215Z,68.57
2022-08-09T02:20:42.056Z,68.30
2022-08-09T02:23:18.770Z,68.46
2022-08-09T02:25:55.674Z,68.34
2022-08-09T02:28:31.823Z,68.10
2022-08-09T02:31:05.827Z,68.44
2022-08-09T02:33:37.725Z,68.57
2022-08-09T02:36:10.706Z,68.69
2022-08-09T02:38:48.873Z,68.84
2022-08-09T02:41:27.084Z,68.63
2022-08-09T02:44:06.634Z,68.43
2022-08-09T02:46:45.615Z,68.75
2022-08-09T02:49:27.130Z,69.24
2022-08-09T02:52:08.806Z,69.36
2022-08-09T02:54:53.870Z,70.07
2022-08-09T02:57:25.164Z,70.66
2022-08-09T03:00:20.933Z,70.53
2022-08-09T03:03:00.458Z,70.94
2022-08-09T03:05:34.200Z,71.65
2022-08-09T03:08:04.868Z,71.60
2022-08-09T03:10:34.449Z,71.36
2022-08-09T03:13:03.439Z,71.41
2022-08-09T03:15:40.576Z,71.32
2022-08-09T03:18:30.536Z,71.21
2022-08-09T03:21:01.334Z,71.63
2022-08-09T03:23:29.474Z,71.55
2022-08-09T03:26:04.798Z,71.32
2022-08-09T03:28:34.861Z,71.46
2022-08-09T03:31:04.455Z,71.66
2022-08-09T03:33:54.456Z,72.14
2022-08-09T03:36:27.565Z,72.32
2022-08-09T03:38:57.312Z,72.45
2022-08-09T03:41:29.903Z,72.49
2022-08-09T03:44:15.653Z,72.74
2022-08-09T03:46:43.675Z,73.01
2022-08-09T03:49:17.286Z,72.99
2022-08-09T03:51:56.613Z,72.93
2022-08-09T03:54:31.488Z,73.00
2022-08-09T03:57:04.327Z,72.94
2022-08-09T03:59:54.823Z,73.01
2022-08-09T04:02:27.847Z,72.99
2022-08-09T04:05:00.957Z,73.34
2022-08-09T04:07:47.025Z,73.22
2022-08-09T04:10:20.717Z,73.45
2022-08-09T04:12:50.811Z,73.15
2022-08-09T04:15:39.140Z,73.13
2022-08-09T04:18:08.675Z,73.16
2022-08-09T04:20:37.912Z,73.17
2022-08-09T04:23:09.990Z,73.51
2022-08-09T04:25:44.806Z,73.37
2022-08-09T04:28:30.810Z,73.23
2022-08-09T04:31:09.278Z,73.99
2022-08-09T04:33:47.340Z,74.04
2022-08-09T04:36:27.371Z,73.91
2022-08-09T04:38:57.188Z,73.80
2022-08-09T04:41:32.408Z,73.87
2022-08-09T04:44:07.252Z,73.74
2022-08-09T04:46:58.220Z,73.65
2022-08-09T04:49:30.302Z,73.82
2022-08-09T04:52:18.679Z,74.02
2022-08-09T04:54:54.206Z,74.36
2022-08-09T04:57:23.979Z,74.84
2022-08-09T04:59:53.495Z,74.55
2022-08-09T05:02:21.425Z,74.40
2022-08-09T05:04:55.333Z,74.96
2022-08-09T05:07:29.237Z,75.33
2022-08-09T05:10:01.806Z,74.99
2022-08-09T05:12:31.188Z,75.15
2022-08-09T05:15:03.382Z,74.83
2022-08-09T05:18:38.365Z,74.54
2022-08-09T05:20:19.595Z,74.80
2022-08-09T05:23:53.935Z,74.83
2022-08-09T05:25:38.346Z,74.83
2022-08-09T05:28:09.532Z,74.67
2022-08-09T05:30:37.378Z,74.62
2022-08-09T05:33:09.596Z,75.03
2022-08-09T05:35:46.934Z,75.04
2022-08-09T05:38:21.677Z,74.69
2022-08-09T05:40:50.738Z,74.57
2022-08-09T05:43:20.740Z,74.72
2022-08-09T05:45:55.852Z,74.33
2022-08-09T05:48:32.699Z,73.98
2022-08-09T05:51:41.658Z,73.72
2022-08-09T05:53:57.333Z,73.54
2022-08-09T05:56:28.176Z,73.29
2022-08-09T05:58:58.607Z,73.02
2022-08-09T06:01:26.929Z,72.62
2022-08-09T06:04:05.452Z,72.64
2022-08-09T06:06:34.116Z,71.89
2022-08-09T06:09:03.412Z,71.83
2022-08-09T06:11:40.910Z,71.94
2022-08-09T06:14:20.045Z,71.26
2022-08-09T06:16:52.162Z,70.86
2022-08-09T06:19:20.825Z,70.66
2022-08-09T06:21:50.335Z,70.19
2022-08-09T06:24:20.886Z,69.84
2022-08-09T06:26:48.831Z,69.56
2022-08-09T06:29:17.781Z,69.30
2022-08-09T06:32:08.434Z,69.11
2022-08-09T06:34:37.948Z,69.31
2022-08-09T06:37:06.613Z,69.52
2022-08-09T06:39:57.551Z,68.84
2022-08-09T06:42:30.498Z,68.23
2022-08-09T06:44:59.303Z,68.09
2022-08-09T06:47:39.524Z,67.74
2022-08-09T06:50:14.314Z,67.19
2022-08-09T06:52:48.521Z,66.74
2022-08-09T06:55:22.472Z,66.52
2022-08-09T06:58:03.308Z,66.78
2022-08-09T07:00:49.222Z,66.44
2022-08-09T07:03:27.709Z,65.78
2022-08-09T07:06:04.163Z,65.37
2022-08-09T07:08:34.123Z,65.16
2022-08-09T07:11:04.315Z,64.77
2022-08-09T07:13:45.229Z,64.29
2022-08-09T07:16:42.476Z,64.00
2022-08-09T07:19:15.638Z,63.95
2022-08-09T07:21:57.088Z,63.74
2022-08-09T07:24:32.407Z,63.59
2022-08-09T07:27:03.151Z,63.38
2022-08-09T07:29:38.018Z,63.40
2022-08-09T07:32:10.939Z,62.80
2022-08-09T07:34:38.803Z,62.64
2022-08-09T07:37:06.727Z,62.39
2022-08-09T07:39:43.873Z,61.99
2022-08-09T07:42:16.175Z,61.28
2022-08-09T07:44:52.494Z,61.18
2022-08-09T07:47:39.550Z,60.92
2022-08-09T07:50:09.991Z,60.56
2022-08-09T07:52:38.396Z,60.62
2022-08-09T07:55:09.753Z,60.52
2022-08-09T07:57:47.056Z,59.59
2022-08-09T08:00:20.886Z,59.67
2022-08-09T08:03:05.146Z,58.81
2022-08-09T08:05:54.362Z,58.38
2022-08-09T08:09:00.630Z,57.74
2022-08-09T08:12:09.662Z,57.27
2022-08-09T08:14:02.870Z,57.50
2022-08-09T08:16:32.221Z,57.11
2022-08-09T08:19:02.768Z,56.64
2022-08-09T08:21:31.564Z,56.31
2022-08-09T08:24:01.200Z,56.54
2022-08-09T08:26:55.126Z,56.55
2022-08-09T08:29:27.375Z,55.65
2022-08-09T08:32:05.637Z,54.90
2022-08-09T08:34:36.134Z,53.92
2022-08-09T08:37:05.378Z,53.32
2022-08-09T08:39:39.967Z,52.63
2022-08-09T08:42:13.761Z,51.98
2022-08-09T08:44:46.286Z,51.82
2022-08-09T08:47:16.026Z,51.63
2022-08-09T08:49:46.679Z,50.73
2022-08-09T08:52:48.584Z,50.04
2022-08-09T08:55:06.249Z,49.51
2022-08-09T08:57:35.900Z,49.36
2022-08-09T09:00:17.337Z,48.91
2022-08-09T09:02:52.946Z,49.42
2022-08-09T09:05:58.396Z,48.42
2022-08-09T09:08:30.814Z,47.99
2022-08-09T09:11:03.568Z,48.07
2022-08-09T09:13:41.836Z,47.92
2022-08-09T09:16:31.117Z,47.35
2022-08-09T09:22:07.771Z,45.84
2022-08-09T09:24:43.405Z,45.44
2022-08-09T09:28:04.330Z,45.48
2022-08-09T09:30:27.380Z,44.16
2022-08-09T09:33:16.411Z,43.71
2022-08-09T09:36:01.508Z,43.13
2022-08-09T09:38:48.361Z,42.20
2022-08-09T09:41:33.304Z,41.05
2022-08-09T09:44:25.245Z,40.91
2022-08-09T09:46:57.789Z,40.58
2022-08-09T09:49:49.704Z,39.99
2022-08-09T09:52:16.775Z,40.07
2022-08-09T09:55:16.766Z,39.80
2022-08-09T09:58:15.902Z,39.12
2022-08-09T10:00:54.519Z,38.53
2022-08-09T10:03:42.924Z,37.79
2022-08-09T10:06:13.139Z,37.61
2022-08-09T10:08:54.162Z,37.26
2022-08-09T10:11:53.911Z,37.55
2022-08-09T10:14:30.482Z,37.20
2022-08-09T10:17:17.167Z,37.43
2022-08-09T10:19:52.030Z,37.35
2022-08-09T10:22:34.132Z,36.75
2022-08-09T10:25:12.103Z,36.62
2022-08-09T10:27:45.330Z,36.53
2022-08-09T10:32:11.820Z,36.34
2022-08-09T10:34:05.261Z,36.10
2022-08-09T10:36:03.147Z,35.78
2022-08-09T10:38:56.239Z,35.55
2022-08-09T10:41:22.054Z,35.35
2022-08-09T10:43:59.308Z,34.84
2022-08-09T10:47:20.493Z,33.77
2022-08-09T10:50:05.654Z,34.12
2022-08-09T10:53:05.584Z,33.48
2022-08-09T10:55:55.319Z,33.65
2022-08-09T10:58:33.881Z,32.51
2022-08-09T11:03:02.940Z,31.06
2022-08-09T11:04:30.776Z,31.09
2022-08-09T11:07:54.053Z,31.57
2022-08-09T11:10:59.825Z,30.89
2022-08-09T11:13:51.426Z,30.72
2022-08-09T11:16:35.628Z,31.26
2022-08-09T11:19:09.570Z,31.39
2022-08-09T11:22:05.206Z,31.34
2022-08-09T11:25:05.542Z,31.34
2022-08-09T11:28:04.630Z,30.33
2022-08-09T11:30:36.255Z,30.08
2022-08-09T11:33:07.285Z,30.07
2022-08-09T11:35:49.578Z,30.03
2022-08-09T11:38:19.812Z,29.12
2022-08-09T11:40:53.080Z,28.84
2022-08-09T11:43:42.519Z,29.20
2022-08-09T11:46:11.018Z,28.86
2022-08-09T11:48:50.321Z,28.97
2022-08-09T11:52:49.360Z,28.64
2022-08-09T11:54:14.633Z,28.97
2022-08-09T11:56:56.169Z,28.98
2022-08-09T11:59:33.753Z,29.45
2022-08-09T12:02:34.529Z,29.90
2022-08-09T12:04:58.095Z,29.20
2022-08-09T12:07:29.143Z,28.19
2022-08-09T12:10:38.091Z,27.34
2022-08-09T12:13:00.378Z,26.52
2022-08-09T12:15:48.726Z,26.36
2022-08-09T12:18:30.145Z,27.00
2022-08-09T12:21:04.043Z,26.35
2022-08-09T12:24:06.104Z,26.32
2022-08-09T12:26:44.804Z,26.33
2022-08-09T12:29:52.243Z,26.58
2022-08-09T12:32:27.209Z,26.61
2022-08-09T12:35:02.649Z,25.97
2022-08-09T12:37:44.302Z,25.50
2022-08-09T12:40:18.877Z,25.42
2022-08-09T12:42:50.197Z,25.38
2022-08-09T12:45:33.416Z,23.90
2022-08-09T12:48:31.200Z,23.94
2022-08-09T12:51:03.916Z,24.39
2022-08-09T12:53:38.187Z,23.41
2022-08-09T12:56:39.582Z,23.67
2022-08-09T12:59:07.955Z,24.39
2022-08-09T13:01:38.041Z,23.82
2022-08-09T13:04:27.539Z,22.95
2022-08-09T13:06:57.428Z,23.50
2022-08-09T13:09:27.047Z,22.88
2022-08-09T13:12:03.152Z,22.99
2022-08-09T13:14:41.540Z,23.68
2022-08-09T13:17:33.647Z,23.02
2022-08-09T13:20:18.730Z,22.78
2022-08-09T13:23:05.564Z,23.11
2022-08-09T13:25:42.259Z,23.87
2022-08-09T13:28:14.229Z,23.89
2022-08-09T13:32:14.018Z,23.61
2022-08-09T13:33:54.411Z,23.78
2022-08-09T13:36:40.335Z,24.58
2022-08-09T13:41:31.151Z,24.65
2022-08-09T13:42:02.526Z,24.49
2022-08-09T13:44:31.961Z,24.27
2022-08-09T13:47:26.616Z,23.90
2022-08-09T13:49:57.696Z,23.64
2022-08-09T13:52:31.132Z,23.58
2022-08-09T13:55:04.516Z,23.08
2022-08-09T13:57:36.555Z,23.43
2022-08-09T14:00:11.923Z,23.57
2022-08-09T14:02:42.831Z,24.20
2022-08-09T14:06:00.432Z,24.23
2022-08-09T14:08:19.368Z,23.92
2022-08-09T14:10:51.952Z,23.89
2022-08-09T14:14:15.785Z,23.77
2022-08-09T14:16:14.239Z,23.85
2022-08-09T14:18:46.025Z,23.36
2022-08-09T14:21:18.605Z,23.40
2022-08-09T14:23:54.267Z,23.69
2022-08-09T14:26:25.562Z,23.10
2022-08-09T14:29:02.947Z,23.05
2022-08-09T14:31:50.159Z,22.58
2022-08-09T14:34:32.323Z,22.71
2022-08-09T14:37:06.508Z,22.65
2022-08-09T14:39:40.082Z,22.70
2022-08-09T14:42:30.530Z,22.86
2022-08-09T14:46:46.382Z,22.97
2022-08-09T14:47:56.978Z,23.14
2022-08-09T14:50:26.019Z,23.09
2022-08-09T14:52:54.976Z,23.24
2022-08-09T14:55:24.195Z,23.02
2022-08-09T14:57:52.703Z,23.15
2022-08-09T15:00:22.437Z,22.91
2022-08-09T15:02:51.751Z,22.93
2022-08-09T15:05:20.224Z,22.79
2022-08-09T15:07:56.703Z,22.82
2022-08-09T15:10:29.666Z,22.85
2022-08-09T15:13:00.228Z,22.97
2022-08-09T15:15:29.859Z,22.94
2022-08-09T15:18:02.659Z,22.99
2022-08-09T15:21:55.137Z,22.89
2022-08-09T15:24:00.954Z,23.01
2022-08-09T15:26:18.791Z,23.02
2022-08-09T15:28:56.313Z,23.15
2022-08-09T15:31:40.435Z,23.32
2022-08-09T15:34:32.483Z,23.65
2022-08-09T15:36:58.907Z,23.59
2022-08-09T15:39:34.782Z,23.39
2022-08-09T15:42:13.287Z,23.76
2022-08-09T15:44:42.832Z,23.69
2022-08-09T15:47:14.058Z,24.09
2022-08-09T15:50:00.570Z,24.55
2022-08-09T15:52:30.420Z,23.89
2022-08-09T15:54:58.401Z,24.40
2022-08-09T15:57:35.920Z,24.41
2022-08-09T16:00:15.259Z,24.60
2022-08-09T16:02:54.671Z,25.69
2022-08-09T16:05:26.450Z,24.95
2022-08-09T16:07:54.248Z,25.52
2022-08-09T16:10:55.883Z,25.95
2022-08-09T16:13:21.253Z,26.15
2022-08-09T16:16:11.679Z,26.10
2022-08-09T16:18:45.652Z,26.68
2022-08-09T16:21:17.524Z,26.27
2022-08-09T16:23:55.794Z,26.71
2022-08-09T16:26:35.507Z,26.83
2022-08-09T16:29:11.202Z,26.97
2022-08-09T16:32:18.961Z,27.25
2022-08-09T16:34:53.371Z,27.43
2022-08-09T16:37:18.434Z,27.25
2022-08-09T16:40:00.449Z,27.45
2022-08-09T16:42:34.784Z,27.90
2022-08-09T16:45:05.730Z,28.25
2022-08-09T16:48:41.093Z,28.27
2022-08-09T16:50:31.170Z,28.40
2022-08-09T16:53:00.968Z,28.37
2022-08-09T16:55:31.478Z,28.81
2022-08-09T16:58:18.552Z,29.14
2022-08-09T17:00:48.282Z,29.13
2022-08-09T17:03:22.031Z,29.39
2022-08-09T17:06:07.819Z,29.20
2022-08-09T17:09:02.889Z,29.34
2022-08-09T17:11:40.907Z,29.32
2022-08-09T17:14:26.165Z,29.54
2022-08-09T17:16:59.662Z,29.94
2022-08-09T17:19:28.292Z,30.17
2022-08-09T17:22:16.245Z,30.50
2022-08-09T17:24:55.025Z,30.71
2022-08-09T17:27:23.774Z,30.34
2022-08-09T17:29:51.890Z,30.25
2022-08-09T17:32:35.100Z,30.13
2022-08-09T17:35:11.717Z,30.30
2022-08-09T17:38:12.452Z,30.25
2022-08-09T17:40:29.449Z,30.30
2022-08-09T17:42:59.694Z,30.74
2022-08-09T17:46:01.909Z,30.43
2022-08-09T17:48:29.210Z,30.48
2022-08-09T17:51:06.519Z,30.47
2022-08-09T17:53:42.852Z,31.16
2022-08-09T17:56:11.423Z,30.93
2022-08-09T17:58:42.759Z,31.18
2022-08-09T18:01:22.152Z,30.91
2022-08-09T18:03:52.641Z,31.01
2022-08-09T18:06:32.061Z,31.16
2022-08-09T18:09:03.382Z,31.59
2022-08-09T18:12:05.765Z,31.90
2022-08-09T18:14:23.314Z,32.15
2022-08-09T18:16:54.919Z,31.76
2022-08-09T18:21:00.102Z,31.82
2022-08-09T18:22:33.717Z,32.42
2022-08-09T18:25:01.623Z,32.06
2022-08-09T18:28:02.009Z,32.43
2022-08-09T18:30:40.546Z,33.30
2022-08-09T18:33:05.294Z,33.07
2022-08-09T18:35:58.121Z,33.79
2022-08-09T18:38:27.593Z,34.21
2022-08-09T18:40:55.799Z,34.16
2022-08-09T18:43:25.607Z,34.15
2022-08-09T18:46:50.786Z,33.92
2022-08-09T18:48:42.957Z,33.99
2022-08-09T18:51:12.128Z,34.57
2022-08-09T18:53:59.879Z,34.58
2022-08-09T18:56:30.844Z,35.35
2022-08-09T18:59:01.004Z,35.67
2022-08-09T19:01:35.254Z,35.90
2022-08-09T19:04:14.055Z,36.30
2022-08-09T19:06:50.400Z,36.52
2022-08-09T19:09:34.138Z,36.89
2022-08-09T19:12:09.216Z,37.10
2022-08-09T19:14:38.385Z,37.66
2022-08-09T19:17:06.279Z,37.73
2022-08-09T19:19:41.556Z,37.88
2022-08-09T19:22:12.098Z,38.28
2022-08-09T19:25:11.367Z,38.25
2022-08-09T19:27:34.819Z,38.54
2022-08-09T19:30:24.694Z,38.77
2022-08-09T19:32:52.986Z,39.14
2022-08-09T19:35:26.354Z,39.41
2022-08-09T19:37:57.919Z,39.56
2022-08-09T19:40:34.374Z,39.85
2022-08-09T19:43:05.068Z,40.01
2022-08-09T19:45:40.223Z,40.25
2022-08-09T19:48:10.883Z,40.63
2022-08-09T19:50:48.782Z,40.74
2022-08-09T19:53:21.090Z,40.96
2022-08-09T19:56:03.366Z,41.38
2022-08-09T19:58:34.966Z,41.74
2022-08-09T20:01:04.022Z,41.83
2022-08-09T20:04:23.944Z,42.06
2022-08-09T20:06:23.978Z,42.30
2022-08-09T20:08:59.362Z,42.50
2022-08-09T20:11:43.432Z,42.46
2022-08-09T20:14:16.567Z,42.81
2022-08-09T20:16:54.029Z,42.97
2022-08-09T20:19:48.455Z,43.17
2022-08-09T20:22:13.955Z,43.68
2022-08-09T20:24:53.238Z,43.76
2022-08-09T20:27:22.683Z,43.85
2022-08-09T20:29:50.922Z,44.22
2022-08-09T20:32:30.027Z,44.35
2022-08-09T20:34:59.665Z,44.57
2022-08-09T20:37:37.083Z,45.01
2022-08-09T20:40:27.697Z,45.06
2022-08-09T20:42:59.874Z,45.05
2022-08-09T20:45:59.800Z,45.11
2022-08-09T20:48:29.008Z,45.80
2022-08-09T20:50:59.105Z,45.59
2022-08-09T20:53:35.288Z,45.83
2022-08-09T20:56:19.835Z,46.21
2022-08-09T20:58:50.227Z,46.06
2022-08-09T21:01:34.653Z,46.30
2022-08-09T21:04:14.177Z,46.64
2022-08-09T21:06:55.061Z,46.60
2022-08-09T21:09:32.860Z,46.77
2022-08-09T21:14:42.360Z,47.38
2022-08-09T21:18:11.970Z,47.38
2022-08-09T21:20:18.243Z,48.04
2022-08-09T21:22:54.147Z,48.08
2022-08-09T21:25:43.783Z,48.07
2022-08-09T21:28:35.094Z,48.47
2022-08-09T21:31:16.110Z,48.71
2022-08-09T21:33:51.082Z,48.70
2022-08-09T21:36:22.978Z,49.07
2022-08-09T21:38:57.925Z,49.28
2022-08-09T21:41:59.890Z,49.41
2022-08-09T21:44:32.970Z,49.77
2022-08-09T21:47:03.840Z,49.74
2022-08-09T21:49:40.608Z,49.92
2022-08-09T21:52:16.578Z,50.20
2022-08-09T21:54:49.523Z,50.32
2022-08-09T21:57:35.662Z,50.63
2022-08-09T22:00:12.804Z,50.70
2022-08-09T22:02:43.024Z,50.94
2022-08-09T22:05:22.251Z,50.91
2022-08-09T22:07:53.347Z,51.30
2022-08-09T22:10:23.907Z,51.54
2022-08-09T22:12:53.015Z,51.62
2022-08-09T22:15:33.451Z,52.25
2022-08-09T22:18:03.626Z,52.12
2022-08-09T22:20:31.602Z,52.33
2022-08-09T22:23:00.106Z,52.41
2022-08-09T22:26:08.196Z,52.34
2022-08-09T22:28:21.124Z,52.66
2022-08-09T22:31:02.291Z,52.77
2022-08-09T22:33:42.721Z,53.05
2022-08-09T22:36:19.280Z,53.36
2022-08-09T22:38:48.302Z,53.48
2022-08-09T22:41:16.187Z,53.56
2022-08-09T22:44:01.415Z,53.91
2022-08-09T22:48:15.663Z,54.13
2022-08-09T22:49:21.847Z,54.21
2022-08-09T22:51:57.150Z,54.52
2022-08-09T22:54:27.250Z,54.80
2022-08-09T22:56:57.085Z,55.11
2022-08-09T22:59:57.826Z,55.02
2022-08-09T23:02:20.144Z,55.17
2022-08-09T23:04:54.071Z,55.41
2022-08-09T23:08:29.354Z,55.75
2022-08-09T23:10:30.757Z,55.82
2022-08-09T23:12:58.975Z,56.19
2022-08-09T23:15:26.875Z,56.47
2022-08-09T23:17:56.748Z,56.65
2022-08-09T23:20:26.143Z,56.92
2022-08-09T23:22:54.158Z,57.16
2022-08-09T23:25:22.263Z,57.58
2022-08-09T23:27:57.511Z,57.59
2022-08-09T23:30:38.091Z,57.53
2022-08-09T23:33:07.245Z,57.67
2022-08-09T23:36:05.706Z,57.77
2022-08-09T23:38:23.389Z,57.92
2022-08-09T23:40:52.234Z,57.98
2022-08-09T23:43:21.055Z,58.06
2022-08-09T23:45:49.661Z,58.29
2022-08-09T23:48:19.612Z,58.39
2022-08-09T23:50:47.590Z,58.44
2022-08-09T23:53:15.542Z,58.60
2022-08-09T23:55:49.795Z,58.74
2022-08-09T23:58:27.588Z,59.02
